createdAt,value
2023-02-27T00:02:14.914Z,79111.84
2023-02-27T00:04:44.517Z,79111.84
2023-02-27T00:07:17.712Z,79111.84
2023-02-27T00:09:47.407Z,79111.84
2023-02-27T00:12:16.819Z,79111.84
2023-02-27T00:14:46.790Z,79111.84
2023-02-27T00:17:16.296Z,79111.84
2023-02-27T00:19:45.856Z,79111.84
2023-02-27T00:22:18.025Z,79111.84
2023-02-27T00:24:47.627Z,79111.84
2023-02-27T00:27:17.257Z,79111.84
2023-02-27T00:29:47.579Z,79111.84
2023-02-27T00:32:17.285Z,79111.84
2023-02-27T00:34:46.995Z,79111.84
2023-02-27T00:37:19.786Z,79111.84
2023-02-27T00:39:50.450Z,79111.84
2023-02-27T00:42:19.941Z,79111.84
2023-02-27T00:44:49.505Z,79111.84
2023-02-27T00:47:19.232Z,79111.84
2023-02-27T00:49:48.809Z,79111.84
2023-02-27T00:52:20.964Z,79111.84
2023-02-27T00:54:53.550Z,79111.84
2023-02-27T00:57:23.408Z,79111.84
2023-02-27T00:59:53.055Z,79111.84
2023-02-27T01:02:22.783Z,79111.84
2023-02-27T01:04:52.499Z,79111.84
2023-02-27T01:07:24.863Z,79111.84
2023-02-27T01:09:54.567Z,79111.84
2023-02-27T01:12:24.219Z,79111.84
2023-02-27T01:14:53.962Z,79111.84
2023-02-27T01:17:23.746Z,79111.84
2023-02-27T01:19:53.351Z,79111.84
2023-02-27T01:22:28.466Z,79111.84
2023-02-27T01:24:58.405Z,79111.84
2023-02-27T01:27:28.150Z,79111.84
2023-02-27T01:29:57.790Z,79111.84
2023-02-27T01:32:27.712Z,79111.84
2023-02-27T01:34:57.553Z,79111.84
2023-02-27T01:37:31.692Z,79111.84
2023-02-27T01:40:01.759Z,79111.84
2023-02-27T01:42:32.198Z,79111.84
2023-02-27T01:45:26.925Z,79111.84
2023-02-27T01:48:01.716Z,79111.84
2023-02-27T01:50:31.653Z,79111.84
2023-02-27T01:53:05.148Z,79111.84
2023-02-27T01:55:38.270Z,79111.84
2023-02-27T01:58:09.252Z,79111.84
2023-02-27T02:00:39.096Z,79111.84
2023-02-27T02:03:19.377Z,79111.84
2023-02-27T02:05:50.409Z,79111.84
2023-02-27T02:08:25.935Z,79111.84
2023-02-27T02:10:57.346Z,79111.84
2023-02-27T02:13:27.965Z,79111.84
2023-02-27T02:16:24.773Z,79111.84
2023-02-27T02:19:06.904Z,79111.84
2023-02-27T02:22:02.574Z,79111.84
2023-02-27T02:25:04.206Z,79111.84
2023-02-27T02:27:46.275Z,79111.84
2023-02-27T02:30:44.463Z,79111.84
2023-02-27T02:33:55.787Z,79111.84
2023-02-27T02:36:56.358Z,79111.84
2023-02-27T02:39:43.522Z,79111.84
2023-02-27T02:42:22.219Z,79111.84
2023-02-27T02:45:00.828Z,79111.84
2023-02-27T02:47:39.621Z,79111.84
2023-02-27T02:50:16.740Z,79111.84
2023-02-27T02:52:54.796Z,79111.84
2023-02-27T02:55:33.514Z,79111.84
2023-02-27T02:58:06.998Z,79111.84
2023-02-27T03:00:42.323Z,79111.84
2023-02-27T03:03:18.048Z,79111.84
2023-02-27T03:05:53.685Z,79111.84
2023-02-27T03:08:28.791Z,79111.84
2023-02-27T03:11:03.911Z,79111.84
2023-02-27T03:13:39.708Z,79111.84
2023-02-27T03:16:16.653Z,79111.84
2023-02-27T03:18:51.837Z,79111.84
2023-02-27T03:21:27.057Z,79111.84
2023-02-27T03:24:02.695Z,79111.84
2023-02-27T03:26:43.059Z,79111.84
2023-02-27T03:29:18.230Z,79111.84
2023-02-27T03:31:52.985Z,79111.84
2023-02-27T03:34:28.924Z,79111.84
2023-02-27T03:37:05.590Z,79111.84
2023-02-27T03:39:47.125Z,79111.84
2023-02-27T03:42:27.503Z,79111.84
2023-02-27T03:45:23.104Z,79111.84
2023-02-27T03:47:53.634Z,79111.84
2023-02-27T03:50:24.249Z,79111.84
2023-02-27T03:52:54.092Z,79111.84
2023-02-27T03:55:27.593Z,79111.84
2023-02-27T03:58:00.229Z,79111.84
2023-02-27T04:00:32.136Z,79111.84
2023-02-27T04:03:04.120Z,79111.84
2023-02-27T04:05:35.132Z,79111.84
2023-02-27T04:08:34.415Z,79111.84
2023-02-27T04:11:23.198Z,79111.84
2023-02-27T04:14:06.884Z,79111.84
2023-02-27T04:17:01.315Z,79111.84
2023-02-27T04:19:46.186Z,79111.84
2023-02-27T04:22:28.872Z,79111.84
2023-02-27T04:25:05.848Z,79111.84
2023-02-27T04:27:40.995Z,79111.84
2023-02-27T04:30:26.689Z,79111.84
2023-02-27T04:33:00.617Z,79111.84
2023-02-27T04:35:37.530Z,79111.84
2023-02-27T04:38:15.502Z,79111.84
2023-02-27T04:40:50.253Z,79111.84
2023-02-27T04:43:23.749Z,79111.84
2023-02-27T04:46:01.675Z,79111.84
2023-02-27T04:48:37.166Z,79111.84
2023-02-27T04:51:13.299Z,79111.84
2023-02-27T04:53:50.219Z,79111.84
2023-02-27T04:56:26.171Z,79111.84
2023-02-27T04:58:59.984Z,79111.84
2023-02-27T05:01:38.652Z,79111.84
2023-02-27T05:04:12.459Z,79111.84
2023-02-27T05:06:46.835Z,79111.84
2023-02-27T05:09:36.152Z,79111.84
2023-02-27T05:12:09.024Z,79111.84
2023-02-27T05:14:57.251Z,79111.84
2023-02-27T05:17:49.938Z,79111.84
2023-02-27T05:23:16.154Z,79111.84
2023-02-27T05:25:52.166Z,79111.84
2023-02-27T05:28:27.234Z,79111.84
2023-02-27T05:31:03.978Z,79111.84
2023-02-27T05:33:41.180Z,79111.84
2023-02-27T05:36:27.639Z,79111.84
2023-02-27T05:39:18.231Z,79111.84
2023-02-27T05:41:57.056Z,79111.84
2023-02-27T05:44:33.496Z,79111.84
2023-02-27T05:50:11.680Z,79111.84
2023-02-27T05:52:54.799Z,79111.84
2023-02-27T05:55:35.451Z,79111.84
2023-02-27T05:58:12.256Z,79111.84
2023-02-27T06:00:52.511Z,79111.84
2023-02-27T06:03:24.187Z,79111.84
2023-02-27T06:06:01.102Z,79111.84
2023-02-27T06:08:32.396Z,79111.84
2023-02-27T06:11:03.118Z,79111.84
2023-02-27T06:13:34.238Z,79111.84
2023-02-27T06:16:08.173Z,79111.84
2023-02-27T06:18:38.325Z,79111.84
2023-02-27T06:21:11.562Z,79111.84
2023-02-27T06:23:41.933Z,79111.84
2023-02-27T06:26:14.429Z,79111.84
2023-02-27T06:28:49.874Z,79111.84
2023-02-27T06:31:21.366Z,79111.84
2023-02-27T06:33:57.625Z,79111.84
2023-02-27T06:36:52.558Z,79111.84
2023-02-27T06:39:23.197Z,79111.84
2023-02-27T06:41:53.382Z,79111.84
2023-02-27T06:44:35.299Z,79111.84
2023-02-27T06:47:06.629Z,79111.84
2023-02-27T06:49:37.591Z,79111.84
2023-02-27T06:52:13.255Z,79111.84
2023-02-27T06:54:43.375Z,79111.84
2023-02-27T06:57:22.274Z,79111.84
2023-02-27T06:59:55.678Z,79111.84
2023-02-27T07:02:25.989Z,79111.84
2023-02-27T07:05:10.280Z,79111.84
2023-02-27T07:07:43.349Z,79111.84
2023-02-27T07:10:16.580Z,79111.84
2023-02-27T07:12:46.559Z,79111.84
2023-02-27T07:15:16.316Z,79111.84
2023-02-27T07:17:46.044Z,79111.84
2023-02-27T07:20:15.960Z,79111.84
2023-02-27T07:22:48.531Z,79111.84
2023-02-27T07:25:18.308Z,79111.84
2023-02-27T07:27:50.911Z,79111.84
2023-02-27T07:30:21.428Z,79111.84
2023-02-27T07:32:51.027Z,79111.84
2023-02-27T07:35:21.076Z,79111.84
2023-02-27T07:37:53.375Z,79111.84
2023-02-27T07:40:23.387Z,79111.84
2023-02-27T07:42:53.460Z,79111.84
2023-02-27T07:45:23.471Z,79111.84
2023-02-27T07:47:52.986Z,79111.84
2023-02-27T07:50:28.952Z,79111.84
2023-02-27T07:53:02.795Z,79111.84
2023-02-27T07:55:32.353Z,79111.84
2023-02-27T07:58:01.847Z,79111.84
2023-02-27T08:00:31.377Z,79111.84
2023-02-27T08:03:01.057Z,79111.84
2023-02-27T08:05:31.003Z,79111.84
2023-02-27T08:08:03.131Z,79111.84
2023-02-27T08:10:32.824Z,79111.84
2023-02-27T08:13:02.225Z,79111.84
2023-02-27T08:15:32.735Z,79111.84
2023-02-27T08:18:02.357Z,79111.84
2023-02-27T08:20:32.136Z,79111.84
2023-02-27T08:23:04.408Z,79111.84
2023-02-27T08:25:34.046Z,79111.84
2023-02-27T08:28:03.546Z,79111.84
2023-02-27T08:30:33.201Z,79111.84
2023-02-27T08:33:03.075Z,79111.84
2023-02-27T08:35:32.732Z,79111.84
2023-02-27T08:38:05.896Z,79111.84
2023-02-27T08:40:35.785Z,79111.84
2023-02-27T08:43:05.276Z,79111.84
2023-02-27T08:45:35.316Z,79111.84
2023-02-27T08:48:05.091Z,79111.84
2023-02-27T08:50:35.336Z,79111.84
2023-02-27T08:53:07.614Z,79111.84
2023-02-27T08:55:37.314Z,79111.84
2023-02-27T08:58:07.419Z,79111.84
2023-02-27T09:00:37.065Z,79111.84
2023-02-27T09:03:07.240Z,79111.84
2023-02-27T09:05:37.632Z,79111.84
2023-02-27T09:08:10.118Z,79111.84
2023-02-27T09:10:40.122Z,79111.84
2023-02-27T09:13:10.189Z,79111.84
2023-02-27T09:15:40.141Z,79111.84
2023-02-27T09:18:09.732Z,79111.84
2023-02-27T09:20:40.425Z,79111.84
2023-02-27T09:23:12.724Z,79111.84
2023-02-27T09:25:42.372Z,79111.84
2023-02-27T09:28:11.800Z,79111.84
2023-02-27T09:30:41.405Z,79111.84
2023-02-27T09:33:11.238Z,79111.84
2023-02-27T09:35:40.743Z,79111.84
2023-02-27T09:38:13.999Z,79111.84
2023-02-27T09:40:46.125Z,79111.84
2023-02-27T09:43:21.814Z,79111.84
2023-02-27T09:45:56.151Z,79111.84
2023-02-27T09:48:32.769Z,79111.84
2023-02-27T09:51:03.236Z,79111.84
2023-02-27T09:53:41.779Z,79111.84
2023-02-27T09:56:19.948Z,79111.84
2023-02-27T09:58:58.906Z,79111.84
2023-02-27T10:01:33.478Z,79111.84
2023-02-27T10:04:29.940Z,79111.84
2023-02-27T10:07:09.304Z,79111.84
2023-02-27T10:09:54.032Z,79111.84
2023-02-27T10:12:47.834Z,79111.84
2023-02-27T10:15:26.857Z,79111.84
2023-02-27T10:18:07.529Z,79111.84
2023-02-27T10:20:54.871Z,79111.84
2023-02-27T10:23:32.798Z,79111.84
2023-02-27T10:26:06.614Z,79111.84
2023-02-27T10:28:36.531Z,79111.84
2023-02-27T10:31:21.174Z,79111.84
2023-02-27T10:33:51.211Z,79111.84
2023-02-27T10:36:32.887Z,79111.84
2023-02-27T10:39:07.914Z,79111.84
2023-02-27T10:41:41.239Z,79111.84
2023-02-27T10:44:13.400Z,79111.84
2023-02-27T10:46:43.761Z,79111.84
2023-02-27T10:49:19.272Z,79111.84
2023-02-27T10:51:50.149Z,79111.84
2023-02-27T10:54:25.582Z,79111.84
2023-02-27T10:56:59.913Z,79111.84
2023-02-27T10:59:32.059Z,79111.84
2023-02-27T11:02:03.680Z,79111.84
2023-02-27T11:04:37.490Z,79111.84
2023-02-27T11:07:11.075Z,79111.84
2023-02-27T11:09:42.533Z,79111.84
2023-02-27T11:12:25.393Z,79111.84
2023-02-27T11:14:56.561Z,79111.84
2023-02-27T11:17:32.319Z,79111.84
2023-02-27T11:20:06.257Z,79111.84
2023-02-27T11:22:36.340Z,79111.84
2023-02-27T11:25:25.723Z,79111.84
2023-02-27T11:28:16.489Z,79111.84
2023-02-27T11:30:46.764Z,79111.84
2023-02-27T11:33:22.417Z,79111.84
2023-02-27T11:35:56.945Z,79111.84
2023-02-27T11:38:31.655Z,79111.84
2023-02-27T11:41:03.805Z,79111.84
2023-02-27T11:43:40.149Z,79111.84
2023-02-27T11:46:33.236Z,79111.84
2023-02-27T11:49:12.094Z,79111.84
2023-02-27T11:51:56.844Z,79111.84
2023-02-27T11:54:38.933Z,79111.84
2023-02-27T11:57:19.969Z,79111.84
2023-02-27T11:59:54.839Z,79111.84
2023-02-27T12:02:31.458Z,79111.84
2023-02-27T12:05:08.006Z,79111.84
2023-02-27T12:07:44.192Z,79111.84
2023-02-27T12:10:18.961Z,79111.84
2023-02-27T12:12:53.519Z,79111.84
2023-02-27T12:15:33.326Z,79111.84
2023-02-27T12:18:12.758Z,79111.84
2023-02-27T12:20:51.081Z,79111.84
2023-02-27T12:23:26.220Z,79111.84
2023-02-27T12:26:04.141Z,79111.84
2023-02-27T12:28:45.048Z,79111.84
2023-02-27T12:31:38.691Z,79111.84
2023-02-27T12:34:19.570Z,79111.84
2023-02-27T12:36:49.644Z,79111.84
2023-02-27T12:39:23.722Z,79111.84
2023-02-27T12:42:21.247Z,79111.84
2023-02-27T12:45:02.693Z,79111.84
2023-02-27T12:47:42.902Z,79111.84
2023-02-27T12:50:17.987Z,79111.84
2023-02-27T12:53:01.223Z,79111.84
2023-02-27T12:55:36.613Z,79111.84
2023-02-27T12:58:25.748Z,79111.84
2023-02-27T13:01:01.656Z,79111.84
2023-02-27T13:03:40.240Z,79111.84
2023-02-27T13:06:17.559Z,79111.84
2023-02-27T13:09:06.051Z,79111.84
2023-02-27T13:11:54.147Z,79111.84
2023-02-27T13:14:48.436Z,79111.84
2023-02-27T13:17:25.369Z,79111.84
2023-02-27T13:20:01.888Z,79111.84
2023-02-27T13:22:38.429Z,79111.84
2023-02-27T13:25:15.561Z,79111.84
2023-02-27T13:27:49.723Z,79111.84
2023-02-27T13:30:27.297Z,79111.84
2023-02-27T13:33:04.331Z,79111.84
2023-02-27T13:35:52.044Z,79111.84
2023-02-27T13:38:43.175Z,79111.84
2023-02-27T13:41:40.978Z,79111.84
2023-02-27T13:44:42.439Z,79111.84
2023-02-27T13:47:55.484Z,79111.84
2023-02-27T13:50:54.249Z,79111.84
2023-02-27T13:53:25.466Z,79111.84
2023-02-27T13:55:58.135Z,79111.84
2023-02-27T13:58:27.773Z,79111.84
2023-02-27T14:01:01.362Z,79111.84
2023-02-27T14:03:34.131Z,79111.84
2023-02-27T14:06:09.555Z,79111.84
2023-02-27T14:08:55.674Z,79111.84
2023-02-27T14:11:34.592Z,79111.84
2023-02-27T14:14:08.045Z,79111.84
2023-02-27T14:16:56.219Z,79111.84
2023-02-27T14:19:45.910Z,79111.84
2023-02-27T14:23:10.430Z,79111.84
2023-02-27T14:25:43.179Z,79111.84
2023-02-27T14:28:23.360Z,79111.84
2023-02-27T14:30:57.380Z,79111.84
2023-02-27T14:33:40.095Z,79111.84
2023-02-27T14:36:17.437Z,79111.84
2023-02-27T14:38:51.074Z,79111.84
2023-02-27T14:41:37.245Z,79111.84
2023-02-27T14:44:07.136Z,79111.84
2023-02-27T14:46:40.170Z,79111.84
2023-02-27T14:49:19.898Z,79111.84
2023-02-27T14:51:50.623Z,79111.84
2023-02-27T14:54:24.604Z,79111.84
2023-02-27T14:56:59.036Z,79111.84
2023-02-27T14:59:30.899Z,79111.84
2023-02-27T15:02:04.193Z,79111.84
2023-02-27T15:04:35.939Z,79111.84
2023-02-27T15:07:05.920Z,79111.84
2023-02-27T15:09:43.185Z,79111.84
2023-02-27T15:12:19.298Z,79111.84
2023-02-27T15:14:52.337Z,79111.84
2023-02-27T15:17:24.830Z,79111.84
2023-02-27T15:19:56.364Z,79111.84
2023-02-27T15:22:38.922Z,79111.84
2023-02-27T15:25:33.880Z,79111.84
2023-02-27T15:28:07.044Z,79111.84
2023-02-27T15:30:37.016Z,79111.84
2023-02-27T15:33:07.031Z,79111.84
2023-02-27T15:35:40.517Z,79111.84
2023-02-27T15:38:10.304Z,79111.84
2023-02-27T15:40:42.566Z,79111.84
2023-02-27T15:43:12.476Z,79111.84
2023-02-27T15:45:42.699Z,79111.84
2023-02-27T15:48:15.578Z,79111.84
2023-02-27T15:50:48.691Z,79111.84
2023-02-27T15:53:22.481Z,101869.75
2023-02-27T15:55:56.948Z,101878.75
2023-02-27T15:58:29.025Z,101876.31
2023-02-27T16:01:02.996Z,101867.41
2023-02-27T16:03:36.656Z,101880.13
2023-02-27T16:06:13.831Z,101878.31
2023-02-27T16:08:49.324Z,101887.69
2023-02-27T16:11:27.583Z,101882.75
2023-02-27T16:13:58.365Z,101894.31
2023-02-27T16:16:35.127Z,101891.28
2023-02-27T16:19:18.859Z,101896.41
2023-02-27T16:22:07.796Z,101888.09
2023-02-27T16:24:37.396Z,101891.69
2023-02-27T16:27:09.988Z,101897.19
2023-02-27T16:29:44.859Z,101904.72
2023-02-27T16:32:27.411Z,101911.56
2023-02-27T16:35:05.788Z,101915.22
2023-02-27T16:37:40.486Z,101923.13
2023-02-27T16:40:17.086Z,101918.09
2023-02-27T16:42:49.693Z,101918.56
2023-02-27T16:45:21.088Z,101926.31
2023-02-27T16:47:53.029Z,101924.16
2023-02-27T16:50:26.559Z,101922.75
2023-02-27T16:52:57.568Z,101927.44
2023-02-27T16:55:28.190Z,101934.13
2023-02-27T16:58:00.410Z,101928.16
2023-02-27T17:00:30.097Z,101918.72
2023-02-27T17:02:59.472Z,101932.31
2023-02-27T17:05:29.117Z,101926.44
2023-02-27T17:07:58.576Z,101931.69
2023-02-27T17:10:28.896Z,101928.38
2023-02-27T17:13:01.011Z,101939.03
2023-02-27T17:15:30.867Z,101936.06
2023-02-27T17:18:00.278Z,101947.38
2023-02-27T17:20:32.871Z,101943.28
2023-02-27T17:23:02.855Z,101942.56
2023-02-27T17:25:32.411Z,101943.38
2023-02-27T17:28:05.801Z,101946.13
2023-02-27T17:30:36.182Z,101938.81
2023-02-27T17:33:05.989Z,101946.75
2023-02-27T17:35:35.525Z,101952.72
2023-02-27T17:38:07.333Z,101946.75
2023-02-27T17:40:39.477Z,101950.81
2023-02-27T17:43:11.885Z,101944.31
2023-02-27T17:45:41.505Z,101947.16
2023-02-27T17:48:12.881Z,101952.81
2023-02-27T17:50:44.896Z,101955.06
2023-02-27T17:53:15.761Z,101953.63
2023-02-27T17:55:45.223Z,101958.00
2023-02-27T17:58:18.908Z,101951.41
2023-02-27T18:00:48.411Z,101946.34
2023-02-27T18:03:17.812Z,101954.47
2023-02-27T18:05:51.157Z,101948.97
2023-02-27T18:08:20.772Z,101946.84
2023-02-27T18:10:50.626Z,101942.47
2023-02-27T18:13:25.448Z,101946.56
2023-02-27T18:15:55.915Z,101943.91
2023-02-27T18:18:26.344Z,101947.78
2023-02-27T18:21:03.697Z,101945.31
2023-02-27T18:23:33.393Z,101937.19
2023-02-27T18:26:03.135Z,101939.66
2023-02-27T18:28:35.608Z,101944.31
2023-02-27T18:31:05.340Z,101942.69
2023-02-27T18:33:35.362Z,101947.16
2023-02-27T18:36:04.908Z,101943.28
2023-02-27T18:38:34.328Z,101944.41
2023-02-27T18:41:06.185Z,101943.88
2023-02-27T18:43:38.884Z,101950.19
2023-02-27T18:46:09.231Z,101948.56
2023-02-27T18:48:40.764Z,101944.31
2023-02-27T18:51:12.496Z,101943.59
2023-02-27T18:53:43.729Z,101946.41
2023-02-27T18:56:14.222Z,101954.97
2023-02-27T18:58:46.486Z,101950.31
2023-02-27T19:01:24.350Z,101952.16
2023-02-27T19:04:00.161Z,101955.41
2023-02-27T19:06:30.543Z,101949.31
2023-02-27T19:09:00.353Z,101951.66
2023-02-27T19:11:33.465Z,101965.56
2023-02-27T19:14:10.896Z,101957.53
2023-02-27T19:16:41.010Z,101955.72
2023-02-27T19:19:11.955Z,101955.91
2023-02-27T19:21:42.168Z,101953.19
2023-02-27T19:24:24.693Z,101952.59
2023-02-27T19:26:54.721Z,101953.09
2023-02-27T19:29:26.879Z,101959.66
2023-02-27T19:31:58.981Z,101962.53
2023-02-27T19:34:28.843Z,101948.09
2023-02-27T19:36:58.325Z,101958.38
2023-02-27T19:39:28.584Z,101962.41
2023-02-27T19:41:58.297Z,101960.72
2023-02-27T19:44:30.754Z,101954.91
2023-02-27T19:47:00.955Z,101961.81
2023-02-27T19:49:30.490Z,101950.44
2023-02-27T19:52:00.970Z,101958.88
2023-02-27T19:54:33.208Z,101952.44
2023-02-27T19:57:03.552Z,101962.63
2023-02-27T19:59:35.756Z,101961.06
2023-02-27T20:02:05.592Z,101953.94
2023-02-27T20:04:35.249Z,101953.72
2023-02-27T20:07:04.836Z,101957.72
2023-02-27T20:09:35.487Z,101951.50
2023-02-27T20:12:05.002Z,101965.00
2023-02-27T20:14:37.665Z,101966.63
2023-02-27T20:17:09.320Z,101960.97
2023-02-27T20:19:42.024Z,101960.28
2023-02-27T20:22:13.620Z,101961.94
2023-02-27T20:24:44.793Z,101973.50
2023-02-27T20:27:43.601Z,101964.13
2023-02-27T20:30:15.488Z,101980.22
2023-02-27T20:32:46.278Z,101981.69
2023-02-27T20:35:15.850Z,101988.03
2023-02-27T20:37:45.283Z,101981.47
2023-02-27T20:40:26.528Z,101970.28
2023-02-27T20:42:56.831Z,101981.75
2023-02-27T20:45:29.126Z,101981.75
2023-02-27T20:47:58.874Z,101985.09
2023-02-27T20:50:28.288Z,101981.75
2023-02-27T20:52:59.966Z,101987.00
2023-02-27T20:55:29.465Z,101983.75
2023-02-27T20:57:58.961Z,101984.84
2023-02-27T21:00:31.644Z,101981.38
2023-02-27T21:03:03.439Z,101985.50
2023-02-27T21:05:33.812Z,101984.41
2023-02-27T21:08:03.263Z,101993.44
2023-02-27T21:10:33.179Z,101985.00
2023-02-27T21:13:02.577Z,101981.97
2023-02-27T21:15:37.355Z,101982.56
2023-02-27T21:18:08.955Z,101990.28
2023-02-27T21:20:38.671Z,101986.78
2023-02-27T21:23:08.104Z,101982.25
2023-02-27T21:25:37.849Z,101989.41
2023-02-27T21:28:07.620Z,101983.78
2023-02-27T21:30:40.680Z,101992.03
2023-02-27T21:33:10.416Z,101990.72
2023-02-27T21:35:39.891Z,101991.53
2023-02-27T21:38:09.572Z,101995.88
2023-02-27T21:40:39.008Z,102005.19
2023-02-27T21:43:09.084Z,101998.91
2023-02-27T21:45:47.592Z,102001.88
2023-02-27T21:48:17.424Z,102000.47
2023-02-27T21:50:49.104Z,101996.06
2023-02-27T21:53:18.723Z,101997.38
2023-02-27T21:55:48.163Z,101994.13
2023-02-27T21:58:17.917Z,101998.66
2023-02-27T22:00:50.254Z,101997.81
2023-02-27T22:03:20.146Z,102005.69
2023-02-27T22:05:49.760Z,102002.97
2023-02-27T22:08:19.664Z,102005.69
2023-02-27T22:10:49.259Z,102007.88
2023-02-27T22:13:18.825Z,102007.28
2023-02-27T22:15:50.978Z,101998.78
2023-02-27T22:18:42.813Z,102004.81
2023-02-27T22:21:20.043Z,101999.72
2023-02-27T22:23:50.292Z,101992.69
2023-02-27T22:26:24.301Z,102003.34
2023-02-27T22:28:54.219Z,101999.31
2023-02-27T22:31:28.906Z,102001.59
2023-02-27T22:34:03.348Z,101995.69
2023-02-27T22:36:34.377Z,101994.66
2023-02-27T22:39:04.042Z,102000.38
2023-02-27T22:41:36.832Z,102005.66
2023-02-27T22:44:07.175Z,102006.31
2023-02-27T22:46:41.382Z,102011.56
2023-02-27T22:49:14.153Z,102007.25
2023-02-27T22:51:44.361Z,102014.94
2023-02-27T22:54:16.161Z,102011.19
2023-02-27T22:56:46.091Z,102018.59
2023-02-27T22:59:16.728Z,102019.22
2023-02-27T23:01:48.927Z,102016.81
2023-02-27T23:04:19.772Z,102022.84
2023-02-27T23:06:51.519Z,102019.31
2023-02-27T23:09:25.424Z,102018.84
2023-02-27T23:11:55.129Z,102017.53
2023-02-27T23:14:25.335Z,102023.56
2023-02-27T23:16:59.040Z,102032.56
2023-02-27T23:19:28.835Z,102030.41
2023-02-27T23:21:58.264Z,102035.06
2023-02-27T23:24:27.986Z,102031.00
2023-02-27T23:26:57.408Z,102034.06
2023-02-27T23:29:26.825Z,102035.44
2023-02-27T23:31:59.037Z,102038.47
2023-02-27T23:34:35.087Z,102036.59
2023-02-27T23:37:10.246Z,102041.75
2023-02-27T23:39:39.764Z,102048.84
2023-02-27T23:42:09.348Z,102041.22
2023-02-27T23:44:51.403Z,102046.09
2023-02-27T23:47:36.086Z,102051.31
2023-02-27T23:50:07.973Z,102048.84
2023-02-27T23:52:37.494Z,102051.84
2023-02-27T23:55:07.872Z,102055.94
2023-02-27T23:57:37.684Z,102051.06
